Upstream stations:
SHEF ID: SYRK1 ARKANSAS R AT SYRACUSE, KS
STATION TYPE:
Regulating: Stage = 10.00, Flow = 2273
PRECIP STAGE RIV-FLOW BAT-LOAD
in ft cfs volt
Ccp-Rev Ccp-Rev Ccp-Rev Ccp-Rev
(US/Central)
07/30 00:00 0.00 4.22 80 12.60
07/30 01:00 0.02 4.16 73 12.60
07/30 02:00 0.00 4.14 71 12.60
07/30 03:00 0.00 4.18 75 12.60
07/30 04:00 0.01 4.13 70 12.60
07/30 05:00 0.00 4.12 69 12.60
07/30 06:00 0.01 4.10 67 12.60
07/30 07:00 0.00 4.10 67 12.60
07/30 08:00 0.00 4.09 66 12.60
07/30 09:00 0.00 4.13 70 12.60
07/30 10:00 0.00 4.10 67 12.60
07/30 11:00 0.00 4.08 64 12.60
07/30 12:00 0.00 4.07 63 12.71
07/30 13:00 0.00 4.07 63 12.95
07/30 14:00 0.00 4.07 63 13.48
07/30 15:00 0.00 4.08 64 13.48
07/30 16:00 0.00 4.07 63 13.65
07/30 17:00 0.00 4.06 62 13.59
07/30 18:00 0.00 4.07 63 13.53
07/30 19:00 0.00 4.07 63 13.36
07/30 20:00 0.00 4.08 64 13.07
07/30 21:00 0.00 4.07 63 12.89
07/30 22:00 0.00 4.08 64 12.89
07/30 23:00 0.00 4.09 66 12.83